Terminal Aerodrome Forecast
Issued by NWS

Home | Current Version | Previous Version | Text Only | Print | Product List | Glossary On
Versions: 1 2 3 4 5 6 7 8 9 10 11 12 13 14 15 16 17 18 19 20 21 22 23 24
000
FTUS41 KCTP 010538
TAFBFD
TAF
KBFD 010538Z 0106/0206 14009KT 5SM -RA BR BKN006 OVC028
     FM010900 16008KT 2SM -RA BR OVC004
     FM012000 19006KT 6SM BR VCSH OVC015
     FM020300 32003KT 2SM BR OVC004=

USA.gov is the U.S. government's official web portal to all federal, state and local government web resources and services.